sensor_id;sensor_type;location;lat;lon;timestamp;pressure;altitude;pressure_sealevel;temperature;humidity
34696;BME280;20918;51.138;17.370;2023-03-21T00:02:52;100206.10;;;8.32;88.96
34696;BME280;20918;51.138;17.370;2023-03-21T00:05:53;100206.84;;;8.32;88.85
34696;BME280;20918;51.138;17.370;2023-03-21T00:09:04;100201.97;;;8.31;88.86
34696;BME280;20918;51.138;17.370;2023-03-21T00:12:07;100198.67;;;8.30;88.91
34696;BME280;20918;51.138;17.370;2023-03-21T00:15:10;100199.19;;;8.31;89.05
34696;BME280;20918;51.138;17.370;2023-03-21T00:18:23;100192.70;;;8.30;89.02
34696;BME280;20918;51.138;17.370;2023-03-21T00:21:34;100189.48;;;8.29;89.11
34696;BME280;20918;51.138;17.370;2023-03-21T00:24:48;100186.61;;;8.26;88.95
34696;BME280;20918;51.138;17.370;2023-03-21T00:27:51;100181.34;;;8.24;89.03
34696;BME280;20918;51.138;17.370;2023-03-21T00:31:05;100180.12;;;8.22;88.99
34696;BME280;20918;51.138;17.370;2023-03-21T00:34:09;100177.17;;;8.20;89.03
34696;BME280;20918;51.138;17.370;2023-03-21T00:37:15;100172.87;;;8.14;89.10
34696;BME280;20918;51.138;17.370;2023-03-21T00:40:18;100169.67;;;8.08;89.16
34696;BME280;20918;51.138;17.370;2023-03-21T00:43:19;100168.87;;;8.05;89.35
34696;BME280;20918;51.138;17.370;2023-03-21T00:46:26;100165.98;;;8.04;89.52
34696;BME280;20918;51.138;17.370;2023-03-21T00:49:39;100169.82;;;8.04;89.54
34696;BME280;20918;51.138;17.370;2023-03-21T00:52:46;100169.83;;;8.03;89.50
34696;BME280;20918;51.138;17.370;2023-03-21T00:55:53;100172.17;;;8.00;89.52
34696;BME280;20918;51.138;17.370;2023-03-21T00:59:05;100169.23;;;8.00;89.48
34696;BME280;20918;51.138;17.370;2023-03-21T01:02:16;100164.78;;;8.00;89.54
34696;BME280;20918;51.138;17.370;2023-03-21T01:05:32;100167.78;;;8.00;89.66
34696;BME280;20918;51.138;17.370;2023-03-21T01:08:51;100167.93;;;8.02;89.59
34696;BME280;20918;51.138;17.370;2023-03-21T01:11:52;100163.16;;;8.02;89.54
34696;BME280;20918;51.138;17.370;2023-03-21T01:14:53;100164.59;;;8.02;89.79
34696;BME280;20918;51.138;17.370;2023-03-21T01:17:56;100163.36;;;8.00;89.73
34696;BME280;20918;51.138;17.370;2023-03-21T01:21:20;100159.44;;;7.99;89.83
34696;BME280;20918;51.138;17.370;2023-03-21T01:27:51;100162.48;;;7.99;89.73
34696;BME280;20918;51.138;17.370;2023-03-21T01:30:54;100159.23;;;8.00;89.81
34696;BME280;20918;51.138;17.370;2023-03-21T01:34:07;100161.55;;;7.99;89.95
34696;BME280;20918;51.138;17.370;2023-03-21T01:37:10;100161.88;;;7.98;89.86
34696;BME280;20918;51.138;17.370;2023-03-21T01:40:22;100164.46;;;7.96;89.95
34696;BME280;20918;51.138;17.370;2023-03-21T01:43:25;100164.15;;;7.94;89.95
34696;BME280;20918;51.138;17.370;2023-03-21T01:50:34;100165.55;;;7.92;90.35
34696;BME280;20918;51.138;17.370;2023-03-21T01:53:55;100154.13;;;7.90;90.89
34696;BME280;20918;51.138;17.370;2023-03-21T01:56:56;100155.81;;;7.90;91.35
34696;BME280;20918;51.138;17.370;2023-03-21T01:59:59;100150.79;;;7.89;91.38
34696;BME280;20918;51.138;17.370;2023-03-21T02:03:25;100145.97;;;7.87;91.36
34696;BME280;20918;51.138;17.370;2023-03-21T02:06:38;100148.70;;;7.86;91.49
34696;BME280;20918;51.138;17.370;2023-03-21T02:09:51;100147.58;;;7.85;91.48
34696;BME280;20918;51.138;17.370;2023-03-21T02:12:54;100144.06;;;7.85;91.31
34696;BME280;20918;51.138;17.370;2023-03-21T02:16:01;100133.86;;;7.85;91.39
34696;BME280;20918;51.138;17.370;2023-03-21T02:19:22;100120.90;;;7.86;91.50
34696;BME280;20918;51.138;17.370;2023-03-21T02:29:13;100134.48;;;7.97;91.49
34696;BME280;20918;51.138;17.370;2023-03-21T02:42:20;100154.02;;;7.92;91.32
34696;BME280;20918;51.138;17.370;2023-03-21T02:45:25;100151.64;;;7.89;91.38
34696;BME280;20918;51.138;17.370;2023-03-21T02:48:33;100154.06;;;7.87;91.32
34696;BME280;20918;51.138;17.370;2023-03-21T02:51:35;100156.04;;;7.85;91.33
34696;BME280;20918;51.138;17.370;2023-03-21T02:54:37;100159.02;;;7.84;91.40
34696;BME280;20918;51.138;17.370;2023-03-21T02:57:38;100155.86;;;7.81;91.37
34696;BME280;20918;51.138;17.370;2023-03-21T03:00:59;100155.03;;;7.79;91.50
34696;BME280;20918;51.138;17.370;2023-03-21T03:07:30;100161.91;;;7.74;91.77
34696;BME280;20918;51.138;17.370;2023-03-21T03:13:59;100171.27;;;7.72;91.94
34696;BME280;20918;51.138;17.370;2023-03-21T03:17:46;100168.71;;;7.69;91.97
34696;BME280;20918;51.138;17.370;2023-03-21T03:24:25;100168.20;;;7.65;91.98
34696;BME280;20918;51.138;17.370;2023-03-21T03:27:28;100163.74;;;7.63;92.14
34696;BME280;20918;51.138;17.370;2023-03-21T03:30:35;100168.27;;;7.64;92.19
34696;BME280;20918;51.138;17.370;2023-03-21T03:33:37;100159.48;;;7.64;92.28
34696;BME280;20918;51.138;17.370;2023-03-21T03:37:02;100154.23;;;7.66;92.25
34696;BME280;20918;51.138;17.370;2023-03-21T03:43:32;100155.27;;;7.68;92.28
34696;BME280;20918;51.138;17.370;2023-03-21T03:46:48;100155.33;;;7.67;92.30
34696;BME280;20918;51.138;17.370;2023-03-21T03:49:58;100151.66;;;7.67;92.29
34696;BME280;20918;51.138;17.370;2023-03-21T03:56:04;100165.98;;;7.64;92.19
34696;BME280;20918;51.138;17.370;2023-03-21T03:59:11;100168.73;;;7.59;92.09
34696;BME280;20918;51.138;17.370;2023-03-21T04:02:24;100169.10;;;7.55;92.20
34696;BME280;20918;51.138;17.370;2023-03-21T04:05:25;100170.29;;;7.52;92.24
34696;BME280;20918;51.138;17.370;2023-03-21T04:08:26;100169.30;;;7.50;92.33
34696;BME280;20918;51.138;17.370;2023-03-21T04:11:30;100173.10;;;7.47;92.21
34696;BME280;20918;51.138;17.370;2023-03-21T04:14:39;100168.52;;;7.43;92.32
34696;BME280;20918;51.138;17.370;2023-03-21T04:17:39;100168.11;;;7.38;92.43
34696;BME280;20918;51.138;17.370;2023-03-21T04:20:46;100170.23;;;7.36;92.66
34696;BME280;20918;51.138;17.370;2023-03-21T04:23:48;100176.88;;;7.33;92.59
34696;BME280;20918;51.138;17.370;2023-03-21T04:26:49;100175.98;;;7.29;92.71
34696;BME280;20918;51.138;17.370;2023-03-21T04:30:07;100171.33;;;7.26;92.96
34696;BME280;20918;51.138;17.370;2023-03-21T04:33:20;100176.39;;;7.25;92.90
34696;BME280;20918;51.138;17.370;2023-03-21T04:36:33;100175.16;;;7.23;93.15
34696;BME280;20918;51.138;17.370;2023-03-21T04:39:49;100178.18;;;7.23;93.09
34696;BME280;20918;51.138;17.370;2023-03-21T04:42:50;100180.19;;;7.22;93.28
34696;BME280;20918;51.138;17.370;2023-03-21T04:45:51;100184.15;;;7.23;93.23
34696;BME280;20918;51.138;17.370;2023-03-21T04:49:11;100180.98;;;7.23;93.34
34696;BME280;20918;51.138;17.370;2023-03-21T04:52:19;100179.80;;;7.22;93.30
34696;BME280;20918;51.138;17.370;2023-03-21T04:55:22;100187.12;;;7.23;93.42
34696;BME280;20918;51.138;17.370;2023-03-21T04:58:29;100186.16;;;7.22;93.42
34696;BME280;20918;51.138;17.370;2023-03-21T05:01:50;100187.11;;;7.22;93.37
34696;BME280;20918;51.138;17.370;2023-03-21T05:04:54;100189.00;;;7.22;93.49
34696;BME280;20918;51.138;17.370;2023-03-21T05:08:00;100187.99;;;7.21;93.64
34696;BME280;20918;51.138;17.370;2023-03-21T05:11:00;100191.89;;;7.21;93.82
34696;BME280;20918;51.138;17.370;2023-03-21T05:14:05;100195.93;;;7.21;93.71
34696;BME280;20918;51.138;17.370;2023-03-21T05:17:17;100196.79;;;7.21;93.87
34696;BME280;20918;51.138;17.370;2023-03-21T05:20:32;100196.55;;;7.20;93.92
34696;BME280;20918;51.138;17.370;2023-03-21T05:23:37;100200.46;;;7.19;93.98
34696;BME280;20918;51.138;17.370;2023-03-21T05:26:38;100199.08;;;7.19;94.00
34696;BME280;20918;51.138;17.370;2023-03-21T05:29:47;100201.77;;;7.21;94.13
34696;BME280;20918;51.138;17.370;2023-03-21T05:32:50;100203.65;;;7.21;94.15
34696;BME280;20918;51.138;17.370;2023-03-21T05:35:54;100204.38;;;7.21;94.12
34696;BME280;20918;51.138;17.370;2023-03-21T05:38:56;100204.90;;;7.21;94.23
34696;BME280;20918;51.138;17.370;2023-03-21T05:41:59;100206.13;;;7.25;94.23
34696;BME280;20918;51.138;17.370;2023-03-21T05:45:04;100205.17;;;7.26;94.24
34696;BME280;20918;51.138;17.370;2023-03-21T05:48:06;100206.79;;;7.27;94.18
34696;BME280;20918;51.138;17.370;2023-03-21T05:51:22;100207.23;;;7.28;94.34
34696;BME280;20918;51.138;17.370;2023-03-21T05:54:24;100208.25;;;7.32;94.41
34696;BME280;20918;51.138;17.370;2023-03-21T05:57:26;100213.30;;;7.37;94.45
34696;BME280;20918;51.138;17.370;2023-03-21T06:00:33;100210.56;;;7.39;94.45
34696;BME280;20918;51.138;17.370;2023-03-21T06:03:45;100215.46;;;7.44;94.39
34696;BME280;20918;51.138;17.370;2023-03-21T06:06:51;100215.72;;;7.48;94.51
34696;BME280;20918;51.138;17.370;2023-03-21T06:09:54;100218.06;;;7.51;94.52
34696;BME280;20918;51.138;17.370;2023-03-21T06:12:58;100221.62;;;7.53;94.50
34696;BME280;20918;51.138;17.370;2023-03-21T06:16:06;100218.59;;;7.55;94.34
34696;BME280;20918;51.138;17.370;2023-03-21T06:19:08;100223.95;;;7.56;94.31
34696;BME280;20918;51.138;17.370;2023-03-21T06:22:20;100224.58;;;7.59;94.48
34696;BME280;20918;51.138;17.370;2023-03-21T06:25:21;100227.10;;;7.60;94.52
34696;BME280;20918;51.138;17.370;2023-03-21T06:28:21;100224.21;;;7.59;94.33
34696;BME280;20918;51.138;17.370;2023-03-21T06:31:23;100228.38;;;7.61;94.36
34696;BME280;20918;51.138;17.370;2023-03-21T06:34:26;100230.45;;;7.63;94.32
34696;BME280;20918;51.138;17.370;2023-03-21T06:37:27;100232.61;;;7.67;94.31
34696;BME280;20918;51.138;17.370;2023-03-21T06:40:36;100235.77;;;7.71;94.27
34696;BME280;20918;51.138;17.370;2023-03-21T06:43:37;100232.55;;;7.73;94.22
34696;BME280;20918;51.138;17.370;2023-03-21T06:46:38;100239.03;;;7.74;94.14
34696;BME280;20918;51.138;17.370;2023-03-21T06:49:39;100241.09;;;7.74;94.25
34696;BME280;20918;51.138;17.370;2023-03-21T06:52:43;100247.05;;;7.76;94.22
34696;BME280;20918;51.138;17.370;2023-03-21T06:55:50;100251.52;;;7.79;94.21
34696;BME280;20918;51.138;17.370;2023-03-21T06:58:51;100252.36;;;7.83;94.25
34696;BME280;20918;51.138;17.370;2023-03-21T07:02:03;100254.08;;;7.86;94.07
34696;BME280;20918;51.138;17.370;2023-03-21T07:05:05;100257.64;;;7.89;94.25
34696;BME280;20918;51.138;17.370;2023-03-21T07:08:06;100259.95;;;7.94;94.17
34696;BME280;20918;51.138;17.370;2023-03-21T07:11:10;100261.23;;;8.00;94.29
34696;BME280;20918;51.138;17.370;2023-03-21T07:14:11;100260.33;;;8.05;94.17
34696;BME280;20918;51.138;17.370;2023-03-21T07:17:15;100259.17;;;8.12;94.24
34696;BME280;20918;51.138;17.370;2023-03-21T07:20:15;100259.52;;;8.21;94.29
34696;BME280;20918;51.138;17.370;2023-03-21T07:23:26;100255.86;;;8.31;94.36
34696;BME280;20918;51.138;17.370;2023-03-21T07:26:36;100255.30;;;8.41;94.13
34696;BME280;20918;51.138;17.370;2023-03-21T07:29:37;100258.90;;;8.49;93.80
34696;BME280;20918;51.138;17.370;2023-03-21T07:32:40;100265.50;;;8.58;93.82
34696;BME280;20918;51.138;17.370;2023-03-21T07:35:40;100264.91;;;8.69;93.81
34696;BME280;20918;51.138;17.370;2023-03-21T07:38:42;100264.47;;;8.83;93.82
34696;BME280;20918;51.138;17.370;2023-03-21T07:41:45;100265.36;;;8.93;93.45
34696;BME280;20918;51.138;17.370;2023-03-21T07:44:57;100267.34;;;9.02;92.93
34696;BME280;20918;51.138;17.370;2023-03-21T07:47:57;100269.21;;;9.06;92.41
34696;BME280;20918;51.138;17.370;2023-03-21T07:50:58;100271.00;;;9.13;92.18
34696;BME280;20918;51.138;17.370;2023-03-21T07:53:58;100272.36;;;9.26;92.20
34696;BME280;20918;51.138;17.370;2023-03-21T07:56:59;100272.60;;;9.41;92.09
34696;BME280;20918;51.138;17.370;2023-03-21T08:00:00;100273.91;;;9.54;91.55
34696;BME280;20918;51.138;17.370;2023-03-21T08:03:00;100270.23;;;9.59;90.58
34696;BME280;20918;51.138;17.370;2023-03-21T08:06:01;100271.05;;;9.63;90.06
34696;BME280;20918;51.138;17.370;2023-03-21T08:09:09;100272.98;;;9.69;89.63
34696;BME280;20918;51.138;17.370;2023-03-21T08:12:10;100277.04;;;9.72;88.90
34696;BME280;20918;51.138;17.370;2023-03-21T08:15:14;100276.75;;;9.75;88.25
34696;BME280;20918;51.138;17.370;2023-03-21T08:18:14;100277.47;;;9.79;87.94
34696;BME280;20918;51.138;17.370;2023-03-21T08:21:15;100278.48;;;9.85;87.93
34696;BME280;20918;51.138;17.370;2023-03-21T08:24:16;100277.77;;;9.94;87.39
34696;BME280;20918;51.138;17.370;2023-03-21T08:27:16;100280.27;;;9.95;86.66
34696;BME280;20918;51.138;17.370;2023-03-21T08:30:18;100279.23;;;9.99;86.30
34696;BME280;20918;51.138;17.370;2023-03-21T08:33:22;100282.88;;;9.99;85.35
34696;BME280;20918;51.138;17.370;2023-03-21T08:39:43;100289.61;;;9.99;84.63
34696;BME280;20918;51.138;17.370;2023-03-21T08:42:46;100285.20;;;9.97;84.32
34696;BME280;20918;51.138;17.370;2023-03-21T08:49:09;100287.64;;;9.94;83.56
34696;BME280;20918;51.138;17.370;2023-03-21T08:52:24;100294.77;;;9.88;82.85
34696;BME280;20918;51.138;17.370;2023-03-21T08:55:44;100297.19;;;9.87;83.16
34696;BME280;20918;51.138;17.370;2023-03-21T08:58:47;100299.83;;;9.85;82.61
34696;BME280;20918;51.138;17.370;2023-03-21T09:05:05;100303.95;;;9.90;82.84
34696;BME280;20918;51.138;17.370;2023-03-21T09:08:10;100305.92;;;9.92;82.59
34696;BME280;20918;51.138;17.370;2023-03-21T09:14:53;100306.65;;;10.25;83.11
34696;BME280;20918;51.138;17.370;2023-03-21T09:18:03;100306.92;;;10.43;82.92
34696;BME280;20918;51.138;17.370;2023-03-21T09:21:25;100308.84;;;10.67;82.79
34696;BME280;20918;51.138;17.370;2023-03-21T09:24:29;100306.17;;;10.89;82.31
34696;BME280;20918;51.138;17.370;2023-03-21T09:27:30;100309.89;;;10.97;80.87
34696;BME280;20918;51.138;17.370;2023-03-21T09:30:54;100307.36;;;10.96;80.27
34696;BME280;20918;51.138;17.370;2023-03-21T09:33:57;100310.16;;;10.91;79.84
34696;BME280;20918;51.138;17.370;2023-03-21T09:36:58;100307.93;;;10.92;79.35
34696;BME280;20918;51.138;17.370;2023-03-21T09:39:59;100305.31;;;10.92;79.76
34696;BME280;20918;51.138;17.370;2023-03-21T09:43:17;100307.69;;;10.91;79.30
34696;BME280;20918;51.138;17.370;2023-03-21T09:46:31;100312.21;;;10.95;79.11
34696;BME280;20918;51.138;17.370;2023-03-21T09:49:43;100309.33;;;11.01;78.74
34696;BME280;20918;51.138;17.370;2023-03-21T09:52:49;100309.25;;;10.90;77.80
34696;BME280;20918;51.138;17.370;2023-03-21T09:55:51;100314.33;;;10.74;77.59
34696;BME280;20918;51.138;17.370;2023-03-21T09:58:56;100315.70;;;10.59;77.96
34696;BME280;20918;51.138;17.370;2023-03-21T10:02:01;100311.73;;;10.50;78.44
34696;BME280;20918;51.138;17.370;2023-03-21T10:05:15;100311.50;;;10.42;78.41
34696;BME280;20918;51.138;17.370;2023-03-21T10:08:18;100305.41;;;10.36;78.62
34696;BME280;20918;51.138;17.370;2023-03-21T10:11:24;100309.80;;;10.29;78.26
34696;BME280;20918;51.138;17.370;2023-03-21T10:14:39;100306.06;;;10.21;77.66
34696;BME280;20918;51.138;17.370;2023-03-21T10:17:47;100305.40;;;10.15;78.32
34696;BME280;20918;51.138;17.370;2023-03-21T10:20:59;100300.88;;;10.18;78.56
34696;BME280;20918;51.138;17.370;2023-03-21T10:24:01;100303.83;;;10.24;78.71
34696;BME280;20918;51.138;17.370;2023-03-21T10:27:05;100305.91;;;10.27;78.13
34696;BME280;20918;51.138;17.370;2023-03-21T10:30:06;100308.17;;;10.26;78.01
34696;BME280;20918;51.138;17.370;2023-03-21T10:33:13;100308.92;;;10.27;78.15
34696;BME280;20918;51.138;17.370;2023-03-21T10:36:15;100312.48;;;10.29;78.07
34696;BME280;20918;51.138;17.370;2023-03-21T10:39:35;100315.98;;;10.33;77.92
34696;BME280;20918;51.138;17.370;2023-03-21T10:42:47;100313.52;;;10.40;77.87
34696;BME280;20918;51.138;17.370;2023-03-21T10:45:47;100312.61;;;10.45;77.50
34696;BME280;20918;51.138;17.370;2023-03-21T10:48:52;100310.30;;;10.52;77.83
34696;BME280;20918;51.138;17.370;2023-03-21T10:51:54;100309.23;;;10.67;78.09
34696;BME280;20918;51.138;17.370;2023-03-21T10:58:19;100306.61;;;11.27;77.53
34696;BME280;20918;51.138;17.370;2023-03-21T11:01:36;100306.30;;;11.68;76.84
34696;BME280;20918;51.138;17.370;2023-03-21T11:04:45;100302.55;;;11.81;76.01
34696;BME280;20918;51.138;17.370;2023-03-21T11:07:57;100305.83;;;11.83;75.68
34696;BME280;20918;51.138;17.370;2023-03-21T11:14:01;100301.91;;;11.74;74.39
34696;BME280;20918;51.138;17.370;2023-03-21T11:17:39;100300.51;;;11.56;74.05
34696;BME280;20918;51.138;17.370;2023-03-21T11:23:56;100295.29;;;11.32;74.28
34696;BME280;20918;51.138;17.370;2023-03-21T11:26:56;100292.55;;;11.41;74.53
34696;BME280;20918;51.138;17.370;2023-03-21T11:30:02;100288.59;;;11.61;74.27
34696;BME280;20918;51.138;17.370;2023-03-21T11:33:05;100286.64;;;11.71;73.87
34696;BME280;20918;51.138;17.370;2023-03-21T11:36:22;100287.59;;;11.72;73.93
34696;BME280;20918;51.138;17.370;2023-03-21T11:39:30;100283.20;;;11.72;73.46
34696;BME280;20918;51.138;17.370;2023-03-21T11:42:31;100280.16;;;11.62;72.79
34696;BME280;20918;51.138;17.370;2023-03-21T11:45:35;100277.63;;;11.51;72.79
34696;BME280;20918;51.138;17.370;2023-03-21T11:48:41;100275.49;;;11.42;72.68
34696;BME280;20918;51.138;17.370;2023-03-21T11:51:55;100272.08;;;11.34;72.94
34696;BME280;20918;51.138;17.370;2023-03-21T11:55:03;100271.48;;;11.27;73.23
34696;BME280;20918;51.138;17.370;2023-03-21T12:01:45;100274.91;;;11.04;72.94
34696;BME280;20918;51.138;17.370;2023-03-21T12:08:46;100264.22;;;10.89;73.29
34696;BME280;20918;51.138;17.370;2023-03-21T12:24:48;100250.95;;;11.12;73.17
34696;BME280;20918;51.138;17.370;2023-03-21T12:41:04;100243.02;;;10.94;72.54
34696;BME280;20918;51.138;17.370;2023-03-21T12:44:12;100242.91;;;10.85;72.93
34696;BME280;20918;51.138;17.370;2023-03-21T12:47:15;100239.27;;;10.76;72.85
34696;BME280;20918;51.138;17.370;2023-03-21T12:50:25;100238.25;;;10.64;73.04
34696;BME280;20918;51.138;17.370;2023-03-21T12:56:40;100238.48;;;10.53;73.57
34696;BME280;20918;51.138;17.370;2023-03-21T13:06:13;100226.08;;;10.40;73.41
34696;BME280;20918;51.138;17.370;2023-03-21T13:09:16;100222.78;;;10.42;73.52
34696;BME280;20918;51.138;17.370;2023-03-21T13:19:46;100213.59;;;10.51;73.37
34696;BME280;20918;51.138;17.370;2023-03-21T13:22:55;100210.23;;;10.61;73.53
34696;BME280;20918;51.138;17.370;2023-03-21T13:26:08;100207.25;;;10.74;73.60
34696;BME280;20918;51.138;17.370;2023-03-21T13:32:30;100202.04;;;10.93;73.32
34696;BME280;20918;51.138;17.370;2023-03-21T13:35:35;100199.45;;;11.01;73.28
34696;BME280;20918;51.138;17.370;2023-03-21T13:38:49;100198.02;;;11.07;72.98
34696;BME280;20918;51.138;17.370;2023-03-21T13:41:51;100194.05;;;11.11;73.05
34696;BME280;20918;51.138;17.370;2023-03-21T13:44:54;100195.21;;;11.11;72.56
34696;BME280;20918;51.138;17.370;2023-03-21T13:47:59;100192.20;;;11.11;72.61
34696;BME280;20918;51.138;17.370;2023-03-21T13:51:03;100188.84;;;11.15;72.50
34696;BME280;20918;51.138;17.370;2023-03-21T14:00:29;100188.02;;;11.22;72.02
34696;BME280;20918;51.138;17.370;2023-03-21T14:06:57;100183.55;;;11.23;71.63
34696;BME280;20918;51.138;17.370;2023-03-21T14:13:22;100180.11;;;11.28;71.63
34696;BME280;20918;51.138;17.370;2023-03-21T14:16:25;100179.44;;;11.31;71.63
34696;BME280;20918;51.138;17.370;2023-03-21T14:19:29;100179.48;;;11.32;71.56
34696;BME280;20918;51.138;17.370;2023-03-21T14:22:30;100177.55;;;11.32;71.41
34696;BME280;20918;51.138;17.370;2023-03-21T14:25:35;100172.70;;;11.31;71.21
34696;BME280;20918;51.138;17.370;2023-03-21T14:28:37;100170.60;;;11.29;70.89
34696;BME280;20918;51.138;17.370;2023-03-21T14:31:39;100170.88;;;11.29;71.11
34696;BME280;20918;51.138;17.370;2023-03-21T14:34:41;100168.00;;;11.28;71.17
34696;BME280;20918;51.138;17.370;2023-03-21T14:37:50;100165.54;;;11.27;71.29
34696;BME280;20918;51.138;17.370;2023-03-21T14:40:52;100162.04;;;11.28;70.99
34696;BME280;20918;51.138;17.370;2023-03-21T14:44:00;100157.65;;;11.30;70.76
34696;BME280;20918;51.138;17.370;2023-03-21T14:47:08;100154.29;;;11.36;70.79
34696;BME280;20918;51.138;17.370;2023-03-21T14:50:16;100149.55;;;11.42;70.63
34696;BME280;20918;51.138;17.370;2023-03-21T14:53:22;100145.41;;;11.38;70.58
34696;BME280;20918;51.138;17.370;2023-03-21T14:56:24;100144.69;;;11.25;70.52
34696;BME280;20918;51.138;17.370;2023-03-21T14:59:28;100146.17;;;11.19;70.64
34696;BME280;20918;51.138;17.370;2023-03-21T15:02:32;100144.52;;;11.15;70.43
34696;BME280;20918;51.138;17.370;2023-03-21T15:05:34;100146.09;;;11.12;70.53
34696;BME280;20918;51.138;17.370;2023-03-21T15:08:36;100141.69;;;11.15;70.83
34696;BME280;20918;51.138;17.370;2023-03-21T15:11:38;100143.15;;;11.16;70.41
34696;BME280;20918;51.138;17.370;2023-03-21T15:14:39;100139.89;;;11.17;70.57
34696;BME280;20918;51.138;17.370;2023-03-21T15:17:40;100138.06;;;11.22;70.83
34696;BME280;20918;51.138;17.370;2023-03-21T15:20:42;100137.10;;;11.21;70.49
34696;BME280;20918;51.138;17.370;2023-03-21T15:23:49;100133.20;;;11.18;70.79
34696;BME280;20918;51.138;17.370;2023-03-21T15:26:53;100135.43;;;11.20;70.52
34696;BME280;20918;51.138;17.370;2023-03-21T15:29:56;100133.75;;;11.20;70.28
34696;BME280;20918;51.138;17.370;2023-03-21T15:33:05;100127.48;;;11.22;70.68
34696;BME280;20918;51.138;17.370;2023-03-21T15:36:07;100128.90;;;11.22;70.58
34696;BME280;20918;51.138;17.370;2023-03-21T15:39:12;100130.99;;;11.06;70.09
34696;BME280;20918;51.138;17.370;2023-03-21T15:42:24;100130.27;;;10.89;70.33
34696;BME280;20918;51.138;17.370;2023-03-21T15:45:26;100129.48;;;10.77;70.67
34696;BME280;20918;51.138;17.370;2023-03-21T15:48:32;100132.86;;;10.70;70.97
34696;BME280;20918;51.138;17.370;2023-03-21T15:54:56;100132.67;;;10.64;70.94
34696;BME280;20918;51.138;17.370;2023-03-21T15:57:59;100131.16;;;10.58;70.89
34696;BME280;20918;51.138;17.370;2023-03-21T16:01:01;100128.80;;;10.55;71.04
34696;BME280;20918;51.138;17.370;2023-03-21T16:04:10;100129.30;;;10.57;71.22
34696;BME280;20918;51.138;17.370;2023-03-21T16:07:14;100130.95;;;10.58;71.20
34696;BME280;20918;51.138;17.370;2023-03-21T16:10:27;100130.63;;;10.55;71.24
34696;BME280;20918;51.138;17.370;2023-03-21T16:13:33;100133.64;;;10.51;71.28
34696;BME280;20918;51.138;17.370;2023-03-21T16:16:33;100133.67;;;10.46;71.42
34696;BME280;20918;51.138;17.370;2023-03-21T16:19:43;100129.36;;;10.43;71.45
34696;BME280;20918;51.138;17.370;2023-03-21T16:22:44;100130.59;;;10.44;71.51
34696;BME280;20918;51.138;17.370;2023-03-21T16:25:47;100131.78;;;10.44;71.69
34696;BME280;20918;51.138;17.370;2023-03-21T16:28:52;100134.96;;;10.42;71.92
34696;BME280;20918;51.138;17.370;2023-03-21T16:31:53;100133.69;;;10.38;71.96
34696;BME280;20918;51.138;17.370;2023-03-21T16:35:05;100133.64;;;10.35;72.02
34696;BME280;20918;51.138;17.370;2023-03-21T16:38:10;100134.04;;;10.31;72.16
34696;BME280;20918;51.138;17.370;2023-03-21T16:41:15;100136.88;;;10.28;72.02
34696;BME280;20918;51.138;17.370;2023-03-21T16:44:19;100133.39;;;10.24;72.11
34696;BME280;20918;51.138;17.370;2023-03-21T16:47:20;100127.09;;;10.18;72.10
34696;BME280;20918;51.138;17.370;2023-03-21T16:53:26;100139.02;;;10.06;72.60
34696;BME280;20918;51.138;17.370;2023-03-21T16:56:41;100143.88;;;10.03;72.54
34696;BME280;20918;51.138;17.370;2023-03-21T16:59:42;100145.36;;;9.99;72.61
34696;BME280;20918;51.138;17.370;2023-03-21T17:02:43;100142.96;;;9.95;72.57
34696;BME280;20918;51.138;17.370;2023-03-21T17:05:44;100138.17;;;9.91;72.82
34696;BME280;20918;51.138;17.370;2023-03-21T17:08:57;100136.41;;;9.87;73.05
34696;BME280;20918;51.138;17.370;2023-03-21T17:12:07;100134.58;;;9.82;73.04
34696;BME280;20918;51.138;17.370;2023-03-21T17:15:08;100130.42;;;9.77;73.21
34696;BME280;20918;51.138;17.370;2023-03-21T17:18:12;100131.83;;;9.70;73.35
34696;BME280;20918;51.138;17.370;2023-03-21T17:21:17;100129.64;;;9.64;73.61
34696;BME280;20918;51.138;17.370;2023-03-21T17:24:22;100126.35;;;9.58;73.69
34696;BME280;20918;51.138;17.370;2023-03-21T17:27:25;100125.83;;;9.53;73.70
34696;BME280;20918;51.138;17.370;2023-03-21T17:30:46;100129.06;;;9.48;73.95
34696;BME280;20918;51.138;17.370;2023-03-21T17:33:47;100128.25;;;9.45;74.20
34696;BME280;20918;51.138;17.370;2023-03-21T17:36:52;100123.64;;;9.42;74.20
34696;BME280;20918;51.138;17.370;2023-03-21T17:39:53;100129.23;;;9.42;74.21
34696;BME280;20918;51.138;17.370;2023-03-21T17:42:54;100135.33;;;9.43;74.29
34696;BME280;20918;51.138;17.370;2023-03-21T17:46:02;100139.21;;;9.43;74.29
34696;BME280;20918;51.138;17.370;2023-03-21T17:49:03;100140.11;;;9.45;74.58
34696;BME280;20918;51.138;17.370;2023-03-21T17:52:05;100137.14;;;9.46;74.60
34696;BME280;20918;51.138;17.370;2023-03-21T17:55:05;100136.51;;;9.47;74.68
34696;BME280;20918;51.138;17.370;2023-03-21T17:58:06;100141.80;;;9.47;74.74
34696;BME280;20918;51.138;17.370;2023-03-21T18:01:07;100144.29;;;9.47;74.97
34696;BME280;20918;51.138;17.370;2023-03-21T18:04:11;100145.73;;;9.45;75.17
34696;BME280;20918;51.138;17.370;2023-03-21T18:07:12;100146.30;;;9.43;75.22
34696;BME280;20918;51.138;17.370;2023-03-21T18:10:14;100144.64;;;9.38;75.36
34696;BME280;20918;51.138;17.370;2023-03-21T18:13:15;100142.45;;;9.34;75.50
34696;BME280;20918;51.138;17.370;2023-03-21T18:16:22;100149.70;;;9.29;75.61
34696;BME280;20918;51.138;17.370;2023-03-21T18:19:23;100148.17;;;9.23;75.73
34696;BME280;20918;51.138;17.370;2023-03-21T18:22:27;100156.39;;;9.18;75.83
34696;BME280;20918;51.138;17.370;2023-03-21T18:25:30;100158.30;;;9.16;75.92